This is the latest recevied weather packets stored in our database for station/object VA2DG-13. If no packets are shown the sender has not sent any weather packets the latest 10 day(s).
| Time | Temp. | Humidity | Pressure | Rain* | Wind** | Luminosity | Snow |
|---|---|---|---|---|---|---|---|
| 1777796405 | 3.89° C | 83% | 1009.1 hPa | 0 mm | - | - | - |
| 1777793105 | 3.89° C | 83% | 1009.2 hPa | 0 mm | - | - | - |
| 1777791905 | 4.44° C | 82% | 1009.2 hPa | 0 mm | - | - | - |
| 1777791305 | 4.44° C | 82% | 1009.3 hPa | 0 mm | - | - | - |
| 1777790405 | 4.44° C | 83% | 1009.2 hPa | 0 mm | - | - | - |
| 1777787704 | 4.44° C | 82% | 1009.4 hPa | 0 mm | - | - | - |
| 1777785005 | 4.44° C | 81% | 1009.8 hPa | 0 mm | - | - | - |
| 1777784411 | 4.44° C | 80% | 1009.9 hPa | 0 mm | - | - | - |
| 1777783212 | 5° C | 79% | 1009.8 hPa | 0 mm | - | - | - |
| 1777776911 | 5.56° C | 76% | 1010.3 hPa | 0 mm | - | - | - |
| 1777774811 | 5.56° C | 77% | 1010.5 hPa | 0 mm | - | - | - |
| 1777774511 | 6.11° C | 77% | 1010.6 hPa | 0 mm | - | - | - |
| 1777773911 | 6.11° C | 77% | 1010.6 hPa | 0 mm | - | - | - |
| 1777765811 | 7.22° C | 77% | 1009.9 hPa | 0 mm | - | - | - |
| 1777764611 | 7.78° C | 73% | 1009.7 hPa | 0 mm | - | - | - |
| 1777762811 | 7.78° C | 75% | 1009.7 hPa | 0 mm | - | - | - |
| 1777762511 | 7.78° C | 74% | 1009.5 hPa | 0 mm | - | - | - |
| 1777762211 | 7.78° C | 74% | 1009.6 hPa | 0 mm | - | - | - |
| 1777761911 | 7.78° C | 73% | 1009.6 hPa | 0 mm | - | - | - |
| 1777759811 | 8.33° C | 72% | 1009.6 hPa | 0 mm | - | - | - |
| 1777759511 | 8.33° C | 72% | 1009.6 hPa | 0 mm | - | - | - |
| 1777758911 | 7.78° C | 72% | 1009.7 hPa | 0 mm | - | - | - |
| 1777755011 | 7.78° C | 72% | 1009.7 hPa | 0 mm | - | - | - |
| 1777753511 | 7.22° C | 76% | 1009.6 hPa | 0.25 mm | - | - | - |
| 1777750812 | 6.67° C | 77% | 1010.1 hPa | 0.76 mm | - | - | - |
* Rain latest hour (hover to see other rain measurements)
** Current wind speed in m/s (hover to see current wind gust speed)